This is the latest recevied weather packets stored in our database for station/object KE6RLG. If no packets are shown the sender has not sent any weather packets the latest 10 day(s).
| Time | Temp. | Humidity | Pressure | Rain* | Wind** | Luminosity | Snow |
|---|---|---|---|---|---|---|---|
| 1777306517 | 16.11° C | 60% | 1015.6 hPa | 0 mm | - | 514 W/m² | - |
| 1777305917 | 16.11° C | 61% | 1015.6 hPa | 0 mm | - | 479 W/m² | - |
| 1777303238 | 15.56° C | 56% | 1015.4 hPa | 0 mm | - | 317 W/m² | - |
| 1777299339 | 13.89° C | 70% | 1015 hPa | 0 mm | - | 90 W/m² | - |
| 1777298418 | 13.33° C | 73% | 1015 hPa | 0 mm | - | 50 W/m² | - |
| 1777297839 | 12.78° C | 74% | 1015 hPa | 0 mm | - | 39 W/m² | - |
| 1777296019 | 13.33° C | 73% | 1014.8 hPa | 0 mm | - | 6 W/m² | - |
| 1777292720 | 13.89° C | 72% | 1014.6 hPa | 0 mm | - | 0 W/m² | - |
| 1777292420 | 13.89° C | 72% | 1014.6 hPa | 0 mm | - | 0 W/m² | - |
| 1777291220 | 13.89° C | 72% | 1014.6 hPa | 0 mm | - | 0 W/m² | - |
| 1777290321 | 13.89° C | 71% | 1014.7 hPa | 0 mm | - | 0 W/m² | - |
| 1777288521 | 13.89° C | 72% | 1014.8 hPa | 0 mm | - | 0 W/m² | - |
| 1777285821 | 13.89° C | 73% | 1014.7 hPa | 0 mm | - | 0 W/m² | - |
| 1777285521 | 13.89° C | 72% | 1014.7 hPa | 0 mm | - | 0 W/m² | - |
| 1777282542 | 13.89° C | 71% | 1014.7 hPa | 0 mm | - | 0 W/m² | - |
| 1777279223 | 13.89° C | 69% | 1015.2 hPa | 0 mm | - | 0 W/m² | - |
| 1777276223 | 13.89° C | 71% | 1015.3 hPa | 0 mm | - | 0 W/m² | - |
| 1777275924 | 13.89° C | 71% | 1015.3 hPa | 0 mm | - | 0 W/m² | - |
| 1777273844 | 14.44° C | 71% | 1015.3 hPa | 0 mm | - | 0 W/m² | - |
| 1777270225 | 14.44° C | 69% | 1015.3 hPa | 0 mm | - | 0 W/m² | - |
| 1777268425 | 14.44° C | 63% | 1015.3 hPa | 0 mm | - | 0 W/m² | - |
| 1777267225 | 14.44° C | 59% | 1015.3 hPa | 0 mm | - | 0 W/m² | - |
| 1777266640 | 15° C | 56% | 1015.2 hPa | 0 mm | - | 0 W/m² | - |
| 1777265720 | 15° C | 54% | 1015.1 hPa | 0 mm | - | 0 W/m² | - |
| 1777265120 | 15° C | 53% | 1015 hPa | 0 mm | - | 0 W/m² | - |
* Rain latest hour (hover to see other rain measurements)
** Current wind speed in m/s (hover to see current wind gust speed)